createdAt,value
2023-05-03T00:00:17.560Z,63.0847
2023-05-03T00:01:19.468Z,66.7108
2023-05-03T00:02:21.468Z,68.1659
2023-05-03T00:03:23.360Z,57.2907
2023-05-03T00:04:25.202Z,51.1860
2023-05-03T00:05:27.137Z,55.8093
2023-05-03T00:06:29.148Z,60.7583
2023-05-03T00:07:30.957Z,64.8274
2023-05-03T00:08:32.876Z,68.0224
2023-05-03T00:09:34.798Z,62.7120
2023-05-03T00:10:36.703Z,50.5752
2023-05-03T00:11:38.612Z,51.2069
2023-05-03T00:12:40.514Z,56.7146
2023-05-03T00:13:42.430Z,61.4786
2023-05-03T00:14:44.364Z,65.3648
2023-05-03T00:15:46.251Z,67.0825
2023-05-03T00:16:48.208Z,57.2503
2023-05-03T00:17:50.138Z,55.4664
2023-05-03T00:18:51.992Z,60.1688
2023-05-03T00:19:53.941Z,64.3392
2023-05-03T00:20:55.822Z,67.6337
2023-05-03T00:21:57.738Z,69.1756
2023-05-03T00:22:59.657Z,58.5203
2023-05-03T00:24:01.568Z,50.7747
2023-05-03T00:25:03.482Z,54.9947
2023-05-03T00:26:05.404Z,60.1624
2023-05-03T00:27:07.309Z,64.3744
2023-05-03T00:28:09.222Z,67.7788
2023-05-03T00:29:11.131Z,64.3401
2023-05-03T00:30:13.081Z,52.1972
2023-05-03T00:31:15.099Z,52.5450
2023-05-03T00:32:16.901Z,57.9059
2023-05-03T00:33:18.795Z,62.4903
2023-05-03T00:34:20.713Z,66.2074
2023-05-03T00:35:22.629Z,67.5998
2023-05-03T00:36:24.549Z,56.8983
2023-05-03T00:37:26.462Z,53.5396
2023-05-03T00:38:28.363Z,58.3930
2023-05-03T00:39:30.267Z,62.9036
2023-05-03T00:40:32.180Z,66.5246
2023-05-03T00:41:34.091Z,68.8539
2023-05-03T00:42:36.007Z,60.0574
2023-05-03T00:43:38.137Z,52.0781
2023-05-03T00:44:39.831Z,56.0871
2023-05-03T00:45:41.746Z,60.9711
2023-05-03T00:46:43.697Z,65.0555
2023-05-03T00:47:45.582Z,68.2594
2023-05-03T00:48:47.476Z,64.3145
2023-05-03T00:49:49.424Z,53.2685
2023-05-03T00:50:51.311Z,55.2760
2023-05-03T00:51:53.229Z,60.2817
2023-05-03T00:52:55.138Z,64.4769
2023-05-03T00:53:57.056Z,67.7458
2023-05-03T00:54:58.969Z,67.0247
2023-05-03T00:56:00.885Z,54.9495
2023-05-03T00:57:02.786Z,53.4463
2023-05-03T00:58:04.700Z,58.5428
2023-05-03T00:59:06.614Z,62.9958
2023-05-03T01:00:08.522Z,66.6435
2023-05-03T01:01:10.453Z,68.5235
2023-05-03T01:02:12.355Z,58.4287
2023-05-03T01:03:14.343Z,52.5562
2023-05-03T01:04:16.208Z,57.1529
2023-05-03T01:05:18.087Z,61.9277
2023-05-03T01:06:20.041Z,65.7998
2023-05-03T01:07:21.920Z,68.7018
2023-05-03T01:08:23.819Z,62.5278
2023-05-03T01:09:25.730Z,54.5456
2023-05-03T01:10:27.657Z,58.3510
2023-05-03T01:11:29.573Z,62.8749
2023-05-03T01:12:31.461Z,66.5756
2023-05-03T01:13:33.396Z,69.3425
2023-05-03T01:14:35.302Z,64.6509
2023-05-03T01:15:37.240Z,54.2047
2023-05-03T01:16:39.206Z,56.8269
2023-05-03T01:17:41.062Z,61.6467
2023-05-03T01:18:42.950Z,65.6240
2023-05-03T01:19:44.869Z,68.7494
2023-05-03T01:20:46.808Z,66.7865
2023-05-03T01:21:48.678Z,53.7987
2023-05-03T01:22:50.586Z,51.6386
2023-05-03T01:23:52.486Z,56.8800
2023-05-03T01:24:54.397Z,61.6771
2023-05-03T01:25:56.329Z,65.6022
2023-05-03T01:26:58.224Z,68.0879
2023-05-03T01:28:00.147Z,59.0680
2023-05-03T01:29:02.047Z,51.6841
2023-05-03T01:30:04.197Z,55.9102
2023-05-03T01:31:05.914Z,60.8608
2023-05-03T01:32:07.899Z,64.8774
2023-05-03T01:33:09.713Z,68.0793
2023-05-03T01:34:11.626Z,63.8420
2023-05-03T01:35:13.540Z,52.9426
2023-05-03T01:36:15.459Z,55.0990
2023-05-03T01:37:17.363Z,60.1436
2023-05-03T01:38:19.284Z,64.3329
2023-05-03T01:39:21.227Z,67.6254
2023-05-03T01:40:23.081Z,66.8213
2023-05-03T01:41:25.076Z,54.1584
2023-05-03T01:42:26.983Z,50.5416
2023-05-03T01:43:28.906Z,55.7572
2023-05-03T01:44:30.809Z,60.7121
2023-05-03T01:45:32.791Z,64.7650
2023-05-03T01:46:34.640Z,67.7576
2023-05-03T01:47:36.589Z,60.6648
2023-05-03T01:48:38.472Z,50.1488
2023-05-03T01:49:40.393Z,52.7381
2023-05-03T01:50:42.303Z,58.0564
2023-05-03T01:51:44.198Z,62.6065
2023-05-03T01:52:46.107Z,66.2332
2023-05-03T01:53:48.019Z,66.0734
2023-05-03T01:54:49.931Z,54.8110
2023-05-03T01:55:51.860Z,54.2789
2023-05-03T01:56:53.768Z,59.2853
2023-05-03T01:57:55.666Z,63.5598
2023-05-03T01:58:57.586Z,66.9742
2023-05-03T01:59:59.503Z,68.2067
2023-05-03T02:01:01.430Z,57.2271
2023-05-03T02:02:03.343Z,51.8980
2023-05-03T02:03:05.348Z,56.6481
2023-05-03T02:04:07.174Z,61.4247
2023-05-03T02:06:11.085Z,65.3846
2023-05-03T02:07:12.924Z,62.0068
2023-05-03T02:08:14.832Z,51.2578
2023-05-03T02:09:16.740Z,53.8520
2023-05-03T02:11:20.674Z,59.1570
2023-05-03T02:12:22.479Z,67.1093
2023-05-03T02:13:24.379Z,66.5955
2023-05-03T02:14:26.331Z,55.8301
2023-05-03T02:15:28.206Z,56.5591
2023-05-03T02:16:30.147Z,61.3313
2023-05-03T02:17:32.157Z,65.3267
2023-05-03T02:18:33.975Z,68.3729
2023-05-03T02:19:35.889Z,68.3601
2023-05-03T02:20:37.833Z,56.2924
2023-05-03T02:21:39.714Z,53.1621
2023-05-03T02:22:41.654Z,58.1396
2023-05-03T02:23:43.523Z,62.7300
2023-05-03T02:24:45.449Z,66.4488
2023-05-03T02:25:47.371Z,68.8133
2023-05-03T02:26:49.262Z,59.8689
2023-05-03T02:27:51.182Z,49.9947
2023-05-03T02:28:53.122Z,53.1825
2023-05-03T02:29:55.009Z,58.5000
2023-05-03T02:30:56.980Z,62.9828
2023-05-03T02:31:58.836Z,66.5512
2023-05-03T02:33:00.803Z,65.7254
2023-05-03T02:34:02.676Z,54.4100
2023-05-03T02:35:04.605Z,54.6955
2023-05-03T02:36:06.524Z,59.6800
2023-05-03T02:37:08.433Z,63.9242
2023-05-03T02:38:10.334Z,67.2945
2023-05-03T02:39:12.290Z,67.9758
2023-05-03T02:40:14.202Z,57.2238
2023-05-03T02:41:16.082Z,55.7121
2023-05-03T02:42:17.996Z,60.4774
2023-05-03T02:43:19.902Z,64.6572
2023-05-03T02:44:21.822Z,67.9255
2023-05-03T02:45:23.730Z,69.2172
2023-05-03T02:46:25.706Z,58.1940
2023-05-03T02:47:27.566Z,49.5188
2023-05-03T02:48:29.462Z,53.3589
2023-05-03T02:49:31.388Z,58.6840
2023-05-03T02:50:33.292Z,63.1527
2023-05-03T02:51:35.210Z,66.7568
2023-05-03T02:52:37.146Z,64.9212
2023-05-03T02:53:39.045Z,52.9928
2023-05-03T02:54:40.962Z,52.9601
2023-05-03T02:55:42.878Z,58.1498
2023-05-03T02:56:44.771Z,62.6064
2023-05-03T02:57:46.686Z,66.2233
2023-05-03T02:58:48.624Z,67.6212
2023-05-03T02:59:50.511Z,56.7009
2023-05-03T03:00:52.434Z,50.1103
2023-05-03T03:01:54.366Z,54.6732
2023-05-03T03:02:56.371Z,59.7687
2023-05-03T03:03:58.292Z,63.9615
2023-05-03T03:05:00.145Z,67.2679
2023-05-03T03:06:02.129Z,63.0202
2023-05-03T03:07:03.926Z,52.7707
2023-05-03T03:08:05.832Z,55.3125
2023-05-03T03:09:07.780Z,60.2740
2023-05-03T03:10:09.668Z,64.3606
2023-05-03T03:11:11.603Z,67.5495
2023-05-03T03:12:13.503Z,66.2810
2023-05-03T03:13:15.415Z,54.6664
2023-05-03T03:14:17.327Z,54.7846
2023-05-03T03:15:19.249Z,59.7198
2023-05-03T03:16:21.184Z,63.9749
2023-05-03T03:17:23.142Z,67.3601
2023-05-03T03:18:25.026Z,68.1136
2023-05-03T03:19:26.921Z,56.5200
2023-05-03T03:20:28.862Z,51.6692
2023-05-03T03:21:30.765Z,56.4674
2023-05-03T03:22:32.673Z,61.2796
2023-05-03T03:23:34.624Z,65.2184
2023-05-03T03:24:36.520Z,68.1534
2023-05-03T03:25:38.436Z,61.5270
2023-05-03T03:26:40.375Z,50.9070
2023-05-03T03:27:42.289Z,53.3688
2023-05-03T03:28:44.209Z,58.6350
2023-05-03T03:29:46.129Z,63.0199
2023-05-03T03:30:48.036Z,66.5580
2023-05-03T03:31:49.999Z,66.2655
2023-05-03T03:32:51.909Z,54.6802
2023-05-03T03:33:53.795Z,53.7102
2023-05-03T03:34:55.717Z,58.7360
2023-05-03T03:35:57.650Z,63.1556
2023-05-03T03:36:59.546Z,66.6754
2023-05-03T03:38:01.457Z,68.1638
2023-05-03T03:39:03.364Z,57.8472
2023-05-03T03:40:05.377Z,54.0369
2023-05-03T03:41:07.208Z,58.7260
2023-05-03T03:42:09.148Z,63.1701
2023-05-03T03:43:11.049Z,66.7764
2023-05-03T03:44:12.967Z,69.0735
2023-05-03T03:45:14.892Z,60.5746
2023-05-03T03:46:16.856Z,53.9444
2023-05-03T03:47:18.782Z,58.2465
2023-05-03T03:48:20.671Z,62.8256
2023-05-03T03:49:22.554Z,66.5535
2023-05-03T03:50:24.462Z,69.2411
2023-05-03T03:51:26.376Z,63.1560
2023-05-03T03:52:28.294Z,52.1234
2023-05-03T03:53:30.205Z,54.4295
2023-05-03T03:54:32.162Z,59.6109
2023-05-03T03:55:34.076Z,63.9765
2023-05-03T03:56:35.957Z,67.4260
2023-05-03T03:57:37.889Z,66.8060
2023-05-03T03:58:39.804Z,56.0486
2023-05-03T03:59:41.702Z,56.8370
2023-05-03T04:00:43.682Z,61.5247
2023-05-03T04:01:45.539Z,65.4255
2023-05-03T04:02:47.702Z,68.4158
2023-05-03T04:03:49.416Z,68.1379
2023-05-03T04:04:51.281Z,55.5108
2023-05-03T04:05:53.203Z,49.6003
2023-05-03T04:06:55.141Z,54.4909
2023-05-03T04:07:57.029Z,59.6668
2023-05-03T04:08:58.941Z,63.9123
2023-05-03T04:10:01.107Z,67.3379
2023-05-03T04:11:02.779Z,62.7012
2023-05-03T04:12:04.709Z,50.9746
2023-05-03T04:13:06.645Z,52.1510
2023-05-03T04:14:08.529Z,57.5203
2023-05-03T04:15:10.447Z,62.1262
2023-05-03T04:16:12.358Z,65.8514
2023-05-03T04:17:14.525Z,66.9477
2023-05-03T04:18:16.220Z,56.3401
2023-05-03T04:19:18.102Z,54.5481
2023-05-03T04:20:20.011Z,59.3731
2023-05-03T04:21:22.081Z,63.6612
2023-05-03T04:22:23.835Z,66.9997
2023-05-03T04:23:25.770Z,68.6408
2023-05-03T04:24:27.707Z,58.3197
2023-05-03T04:25:29.588Z,50.9737
2023-05-03T04:26:32.335Z,55.3252
2023-05-03T04:27:33.426Z,60.3898
2023-05-03T04:28:35.334Z,64.5593
2023-05-03T04:29:37.237Z,67.8019
2023-05-03T04:30:39.195Z,63.7986
2023-05-03T04:31:41.075Z,54.5071
2023-05-03T04:32:43.074Z,57.5722
2023-05-03T04:33:44.911Z,62.1710
2023-05-03T04:34:49.083Z,65.9477
2023-05-03T04:35:48.742Z,68.8214
2023-05-03T04:36:50.700Z,65.7627
2023-05-03T04:37:52.575Z,52.9855
2023-05-03T04:38:54.484Z,52.2186
2023-05-03T04:39:56.581Z,57.5395
2023-05-03T04:40:58.321Z,62.2289
2023-05-03T04:42:00.236Z,66.0659
2023-05-03T04:43:02.181Z,68.0012
2023-05-03T04:44:04.062Z,58.0332
2023-05-03T04:45:05.969Z,53.5430
2023-05-03T04:46:07.922Z,58.3158
2023-05-03T04:47:09.803Z,62.8376
2023-05-03T04:48:11.778Z,66.4527
2023-05-03T04:49:13.660Z,68.9222
2023-05-03T04:50:15.568Z,61.0590
2023-05-03T04:51:17.469Z,51.9238
2023-05-03T04:52:19.382Z,55.3933
2023-05-03T04:53:21.299Z,60.3949
2023-05-03T04:54:23.217Z,64.5174
2023-05-03T04:55:25.175Z,67.7909
2023-05-03T04:56:27.053Z,65.0971
2023-05-03T04:57:28.965Z,52.6058
2023-05-03T04:58:30.880Z,51.9970
2023-05-03T04:59:32.793Z,57.2922
2023-05-03T05:00:34.708Z,62.0165
2023-05-03T05:01:36.684Z,65.8046
2023-05-03T05:02:38.611Z,67.6874
2023-05-03T05:03:40.545Z,57.4614
2023-05-03T05:04:42.358Z,50.5339
2023-05-03T05:05:44.285Z,54.8946
2023-05-03T05:06:46.281Z,59.9337
2023-05-03T05:07:48.113Z,64.0712
2023-05-03T05:08:50.024Z,67.3716
2023-05-03T05:09:51.936Z,63.2711
2023-05-03T05:10:53.897Z,51.0353
2023-05-03T05:11:57.207Z,51.1050
2023-05-03T05:12:57.708Z,56.5544
2023-05-03T05:13:59.622Z,61.3422
2023-05-03T05:15:01.542Z,65.2194
2023-05-03T05:16:03.459Z,67.0958
2023-05-03T05:17:05.372Z,57.0440
2023-05-03T05:18:07.360Z,52.2961
2023-05-03T05:19:09.183Z,56.9921
2023-05-03T05:20:11.123Z,61.6788
2023-05-03T05:21:13.011Z,65.4429
2023-05-03T05:22:14.927Z,68.1925
2023-05-03T05:23:16.850Z,61.2395
2023-05-03T05:24:18.792Z,50.4191
2023-05-03T05:25:20.668Z,52.7770
2023-05-03T05:26:22.581Z,58.0839
2023-05-03T05:27:25.331Z,62.5656
2023-05-03T05:28:26.429Z,66.2293
2023-05-03T05:29:28.329Z,66.1810
2023-05-03T05:30:30.279Z,54.2178
2023-05-03T05:31:32.177Z,51.1522
2023-05-03T05:32:34.067Z,56.2969
2023-05-03T05:33:35.975Z,61.1731
2023-05-03T05:34:45.454Z,65.0889
2023-05-03T05:35:39.815Z,67.8786
2023-05-03T05:36:41.757Z,60.3331
2023-05-03T05:37:43.666Z,56.4059
2023-05-03T05:38:45.549Z,60.7239
2023-05-03T05:39:47.482Z,64.7333
2023-05-03T05:40:49.391Z,67.8496
2023-05-03T05:41:51.336Z,69.8411
2023-05-03T05:42:53.213Z,60.7827
2023-05-03T05:43:55.132Z,52.1988
2023-05-03T05:44:57.057Z,56.0471
2023-05-03T05:45:59.048Z,60.9979
2023-05-03T05:47:01.002Z,65.0577
2023-05-03T05:48:02.984Z,68.2571
2023-05-03T05:49:04.780Z,64.7972
2023-05-03T05:50:16.773Z,53.9798
2023-05-03T05:51:08.603Z,56.1720
2023-05-03T05:52:10.516Z,60.8206
2023-05-03T05:53:12.425Z,64.8787
2023-05-03T05:54:14.369Z,68.0518
2023-05-03T05:55:16.250Z,67.0622
2023-05-03T05:56:18.169Z,54.2986
2023-05-03T05:57:20.088Z,50.5712
2023-05-03T05:58:21.996Z,55.6818
2023-05-03T05:59:23.913Z,60.6321
2023-05-03T06:00:25.850Z,64.7073
2023-05-03T06:01:27.784Z,67.7119
2023-05-03T06:02:29.817Z,60.6701
2023-05-03T06:03:31.621Z,51.4257
2023-05-03T06:04:33.496Z,54.7618
2023-05-03T06:05:35.474Z,59.7816
2023-05-03T06:06:37.418Z,63.9395
2023-05-03T06:07:39.242Z,67.2160
2023-05-03T06:08:41.159Z,65.0984
2023-05-03T06:09:43.126Z,52.7198
2023-05-03T06:10:44.986Z,51.6931
2023-05-03T06:11:46.902Z,56.9401
2023-05-03T06:12:48.832Z,61.6457
2023-05-03T06:13:50.725Z,65.4745
2023-05-03T06:15:01.894Z,67.5781
2023-05-03T06:15:54.543Z,57.2246
2023-05-03T06:16:56.572Z,50.0920
2023-05-03T06:17:58.418Z,54.1955
2023-05-03T06:19:00.316Z,59.3278
2023-05-03T06:20:02.438Z,63.5589
2023-05-03T06:21:04.128Z,66.9310
2023-05-03T06:22:06.040Z,63.9450
2023-05-03T06:23:07.957Z,52.1218
2023-05-03T06:24:09.864Z,52.6341
2023-05-03T06:25:11.831Z,57.8629
2023-05-03T06:26:13.719Z,62.3704
2023-05-03T06:27:15.618Z,65.9933
2023-05-03T06:28:17.532Z,67.1845
2023-05-03T06:29:19.438Z,56.0898
2023-05-03T06:30:21.359Z,50.8846
2023-05-03T06:31:23.326Z,55.6696
2023-05-03T06:32:25.216Z,60.6208
2023-05-03T06:33:27.111Z,64.6089
2023-05-03T06:34:29.019Z,67.6600
2023-05-03T06:35:30.948Z,61.7597
2023-05-03T06:36:32.848Z,52.5977
2023-05-03T06:37:34.784Z,55.8957
2023-05-03T06:38:36.679Z,60.8140
2023-05-03T06:39:38.591Z,64.8256
2023-05-03T06:40:40.502Z,67.9232
2023-05-03T06:41:42.421Z,65.2945
2023-05-03T06:42:44.338Z,54.4350
2023-05-03T06:43:46.275Z,56.1834
2023-05-03T06:44:48.158Z,61.0138
2023-05-03T06:45:50.073Z,65.0290
2023-05-03T06:46:52.037Z,68.1293
2023-05-03T06:47:53.941Z,67.2685
2023-05-03T06:48:55.859Z,54.8548
2023-05-03T06:49:57.748Z,52.5159
2023-05-03T06:50:59.636Z,57.6074
2023-05-03T06:52:01.533Z,62.2102
2023-05-03T06:53:03.452Z,66.0252
2023-05-03T06:54:05.380Z,68.2797
2023-05-03T06:55:07.299Z,59.1377
2023-05-03T06:56:09.238Z,53.0978
2023-05-03T06:57:11.115Z,57.5446
2023-05-03T06:58:13.023Z,62.2140
2023-05-03T06:59:14.955Z,65.9871
2023-05-03T07:00:16.855Z,68.7500
2023-05-03T07:01:18.835Z,62.4876
2023-05-03T07:02:20.719Z,53.8869
2023-05-03T07:03:22.660Z,57.4629
2023-05-03T07:04:24.538Z,62.1317
2023-05-03T07:05:26.451Z,65.9531
2023-05-03T07:06:28.388Z,68.8650
2023-05-03T07:07:30.284Z,64.8208
2023-05-03T07:08:32.223Z,52.4731
2023-05-03T07:09:42.795Z,52.8994
2023-05-03T07:10:36.026Z,58.4435
2023-05-03T07:11:37.942Z,62.8082
2023-05-03T07:12:39.863Z,66.5581
2023-05-03T07:13:41.790Z,67.7598
2023-05-03T07:14:43.744Z,56.9503
2023-05-03T07:15:45.667Z,54.3539
2023-05-03T07:16:47.534Z,59.2122
2023-05-03T07:17:49.440Z,63.5907
2023-05-03T07:18:51.329Z,67.0332
2023-05-03T07:19:53.317Z,68.8804
2023-05-03T07:20:55.183Z,59.1536
2023-05-03T07:21:57.116Z,51.7213
2023-05-03T07:22:58.997Z,55.9303
2023-05-03T07:24:00.911Z,60.8882
2023-05-03T07:25:02.842Z,64.9812
2023-05-03T07:26:04.762Z,68.1082
2023-05-03T07:27:06.703Z,63.8022
2023-05-03T07:28:08.604Z,52.4268
2023-05-03T07:29:10.506Z,54.1209
2023-05-03T07:30:12.418Z,59.2750
2023-05-03T07:31:14.349Z,63.5754
2023-05-03T07:32:16.262Z,67.0393
2023-05-03T07:33:18.195Z,67.0297
2023-05-03T07:34:20.115Z,55.4927
2023-05-03T07:35:21.986Z,53.9638
2023-05-03T07:36:23.904Z,59.0252
2023-05-03T07:37:25.857Z,63.4035
2023-05-03T07:38:27.744Z,66.9021
2023-05-03T07:39:29.648Z,68.5020
2023-05-03T07:40:31.570Z,58.3070
2023-05-03T07:41:33.480Z,53.2763
2023-05-03T07:42:35.423Z,57.9432
2023-05-03T07:43:37.317Z,62.4904
2023-05-03T07:44:39.244Z,66.2119
2023-05-03T07:45:41.269Z,68.7905
2023-05-03T07:46:43.070Z,61.5326
2023-05-03T07:47:45.026Z,52.8724
2023-05-03T07:48:46.933Z,56.4816
2023-05-03T07:49:48.800Z,61.2659
2023-05-03T07:50:50.735Z,65.2442
2023-05-03T07:51:52.647Z,68.2892
2023-05-03T07:52:54.567Z,64.7089
2023-05-03T07:53:56.474Z,51.7005
2023-05-03T07:54:58.423Z,50.1808
2023-05-03T07:56:00.331Z,55.7207
2023-05-03T07:57:02.238Z,60.6969
2023-05-03T07:58:04.143Z,64.7382
2023-05-03T07:59:09.857Z,67.4201
2023-05-03T08:00:07.979Z,58.8562
2023-05-03T08:01:09.915Z,55.4832
2023-05-03T08:02:11.898Z,59.9419
2023-05-03T08:03:14.128Z,64.0797
2023-05-03T08:04:15.872Z,67.2695
2023-05-03T08:05:17.979Z,69.2931
2023-05-03T08:06:19.529Z,60.2256
2023-05-03T08:07:21.407Z,50.3760
2023-05-03T08:08:23.345Z,53.6094
2023-05-03T08:09:25.205Z,58.9668
2023-05-03T08:10:27.132Z,63.3445
2023-05-03T08:11:29.206Z,66.8838
2023-05-03T08:12:30.953Z,65.6775
2023-05-03T08:13:32.924Z,55.1996
2023-05-03T08:14:34.796Z,56.7166
2023-05-03T08:15:36.737Z,61.4304
2023-05-03T08:16:38.641Z,65.3036
2023-05-03T08:17:40.544Z,68.2900
2023-05-03T08:18:42.432Z,67.4719
2023-05-03T08:19:44.355Z,55.6603
2023-05-03T08:20:46.259Z,54.8848
2023-05-03T08:21:48.173Z,59.8665
2023-05-03T08:22:50.123Z,64.1371
2023-05-03T08:23:52.024Z,67.5120
2023-05-03T08:24:53.918Z,68.6354
2023-05-03T08:25:55.836Z,57.7973
2023-05-03T08:26:57.746Z,53.7156
2023-05-03T08:27:59.676Z,58.5323
2023-05-03T08:29:01.668Z,63.0458
2023-05-03T08:30:03.722Z,66.7159
2023-05-03T08:31:05.511Z,69.0491
2023-05-03T08:32:07.335Z,60.7597
2023-05-03T08:33:09.270Z,51.8315
2023-05-03T08:34:11.204Z,55.4600
2023-05-03T08:35:13.081Z,60.4923
2023-05-03T08:36:14.999Z,64.6601
2023-05-03T08:37:16.902Z,67.8789
2023-05-03T08:38:18.817Z,64.9606
2023-05-03T08:39:20.748Z,52.4373
2023-05-03T08:40:22.687Z,51.8338
2023-05-03T08:41:24.564Z,57.1764
2023-05-03T08:42:26.471Z,61.8425
2023-05-03T08:43:28.399Z,65.6607
2023-05-03T08:44:30.307Z,67.5948
2023-05-03T08:45:32.220Z,57.4875
2023-05-03T08:46:34.168Z,51.9099
2023-05-03T08:47:36.161Z,56.5646
2023-05-03T08:48:37.968Z,61.3617
2023-05-03T08:49:39.890Z,62.9989
2023-05-03T08:50:41.798Z,49.9543
2023-05-03T08:51:43.709Z,48.4925
2023-05-03T08:52:45.710Z,47.8613
2023-05-03T08:53:47.540Z,47.3898
2023-05-03T08:54:49.451Z,47.0366
2023-05-03T08:55:51.361Z,46.9156
2023-05-03T08:56:53.276Z,46.8420
2023-05-03T08:57:55.191Z,46.6745
2023-05-03T08:58:57.311Z,46.3679
2023-05-03T08:59:59.034Z,46.4496
2023-05-03T09:01:00.933Z,46.3397
2023-05-03T09:02:02.884Z,46.2475
2023-05-03T09:03:04.803Z,46.2047
2023-05-03T09:04:06.824Z,46.0882
2023-05-03T09:05:08.612Z,45.9616
2023-05-03T09:06:10.502Z,45.8801
2023-05-03T09:07:12.405Z,45.7888
2023-05-03T09:08:14.319Z,45.6890
2023-05-03T09:09:16.260Z,45.7978
2023-05-03T09:10:18.187Z,45.8178
2023-05-03T09:11:20.191Z,45.7500
2023-05-03T09:12:22.002Z,45.6210
2023-05-03T09:13:23.915Z,45.6740
2023-05-03T09:14:25.833Z,45.7381
2023-05-03T09:15:27.747Z,45.8064
2023-05-03T09:16:29.779Z,45.6734
2023-05-03T09:17:31.602Z,45.5979
2023-05-03T09:18:33.489Z,45.5981
2023-05-03T09:19:35.399Z,45.6309
2023-05-03T09:20:37.376Z,45.7309
2023-05-03T09:21:39.224Z,45.6785
2023-05-03T09:22:41.187Z,45.4917
2023-05-03T09:23:43.042Z,42.5251
2023-05-03T09:24:44.958Z,36.8223
2023-05-03T09:25:46.887Z,34.5150
2023-05-03T09:26:48.788Z,38.0426
2023-05-03T09:27:50.712Z,45.0570
2023-05-03T09:28:52.640Z,51.3607
2023-05-03T09:29:54.557Z,56.7853
2023-05-03T09:30:56.459Z,61.1874
2023-05-03T09:31:58.440Z,55.6284
2023-05-03T09:33:00.333Z,51.9094
2023-05-03T09:34:02.229Z,56.6071
2023-05-03T09:35:04.288Z,61.5165
2023-05-03T09:36:06.054Z,65.7264
2023-05-03T09:37:07.957Z,69.0321
2023-05-03T09:38:09.880Z,62.4243
2023-05-03T09:39:11.769Z,51.0842
2023-05-03T09:40:13.758Z,48.6583
2023-05-03T09:41:15.590Z,47.9910
2023-05-03T09:42:17.597Z,47.6038
2023-05-03T09:43:19.689Z,47.2540
2023-05-03T09:44:21.356Z,46.9703
2023-05-03T09:45:23.274Z,46.6447
2023-05-03T09:46:25.377Z,46.4292
2023-05-03T09:47:29.219Z,46.3566
2023-05-03T09:48:28.994Z,46.1936
2023-05-03T09:49:30.987Z,46.0723
2023-05-03T09:50:32.899Z,45.9801
2023-05-03T09:51:34.802Z,45.9998
2023-05-03T09:52:36.718Z,45.9645
2023-05-03T09:53:39.813Z,45.7712
2023-05-03T09:54:40.542Z,40.8323
2023-05-03T09:55:42.466Z,36.0040
2023-05-03T09:56:44.396Z,34.7321
2023-05-03T09:57:46.338Z,40.1757
2023-05-03T09:58:48.223Z,47.1366
2023-05-03T09:59:50.138Z,53.1564
2023-05-03T10:00:52.478Z,58.3348
2023-05-03T10:01:53.990Z,61.7384
2023-05-03T10:02:55.926Z,63.2776
2023-05-03T10:03:57.817Z,67.3286
2023-05-03T10:04:59.715Z,70.6297
2023-05-03T10:06:01.669Z,73.2784
2023-05-03T10:07:03.896Z,74.8852
2023-05-03T10:08:05.482Z,64.7553
2023-05-03T10:09:07.392Z,51.0769
2023-05-03T10:10:09.306Z,49.0919
2023-05-03T10:11:11.241Z,48.8019
2023-05-03T10:12:13.134Z,48.1946
2023-05-03T10:13:15.070Z,47.7860
2023-05-03T10:14:16.963Z,47.7109
2023-05-03T10:15:18.868Z,47.2458
2023-05-03T10:16:20.857Z,46.8963
2023-05-03T10:17:29.240Z,46.7644
2023-05-03T10:18:24.664Z,46.6159
2023-05-03T10:19:26.553Z,46.6823
2023-05-03T10:20:28.437Z,46.5770
2023-05-03T10:21:30.346Z,46.4987
2023-05-03T10:22:32.279Z,46.4239
2023-05-03T10:23:34.184Z,46.3179
2023-05-03T10:24:36.088Z,45.4468
2023-05-03T10:25:38.328Z,44.9754
2023-05-03T10:26:39.917Z,40.9652
2023-05-03T10:27:41.833Z,36.0196
2023-05-03T10:28:43.754Z,37.6577
2023-05-03T10:29:45.672Z,44.5353
2023-05-03T10:30:47.586Z,50.9633
2023-05-03T10:31:49.536Z,56.4336
2023-05-03T10:32:51.489Z,61.1048
2023-05-03T10:33:53.324Z,57.9176
2023-05-03T10:34:55.237Z,55.3663
2023-05-03T10:35:57.157Z,59.8339
2023-05-03T10:36:59.075Z,64.2080
2023-05-03T10:38:00.998Z,67.9590
2023-05-03T10:39:02.928Z,70.4941
2023-05-03T10:40:04.829Z,61.5543
2023-05-03T10:41:06.791Z,50.9618
2023-05-03T10:42:08.656Z,49.2460
2023-05-03T10:43:10.570Z,48.5914
2023-05-03T10:44:12.503Z,48.2118
2023-05-03T10:45:14.382Z,47.8506
2023-05-03T10:46:16.316Z,47.6848
2023-05-03T10:47:18.224Z,47.5816
2023-05-03T10:48:20.176Z,47.4842
2023-05-03T10:49:22.063Z,47.2823
2023-05-03T10:50:23.973Z,47.1147
2023-05-03T10:51:25.867Z,46.9420
2023-05-03T10:52:27.778Z,46.6512
2023-05-03T10:53:29.692Z,46.5386
2023-05-03T10:54:31.615Z,46.4590
2023-05-03T10:55:33.526Z,45.5499
2023-05-03T10:56:35.497Z,39.4128
2023-05-03T10:57:38.837Z,35.5201
2023-05-03T10:58:39.268Z,36.0447
2023-05-03T10:59:41.188Z,42.6615
2023-05-03T11:00:43.101Z,49.3631
2023-05-03T11:01:45.050Z,55.0594
2023-05-03T11:02:47.001Z,60.0194
2023-05-03T11:03:48.869Z,59.6203
2023-05-03T11:04:50.833Z,54.4395
2023-05-03T11:05:52.699Z,58.3598
2023-05-03T11:06:54.673Z,62.9651
2023-05-03T11:07:56.532Z,66.9272
2023-05-03T11:08:58.479Z,70.1691
2023-05-03T11:10:00.376Z,65.4185
2023-05-03T11:11:02.281Z,52.9278
2023-05-03T11:12:04.205Z,49.1575
2023-05-03T11:13:06.111Z,48.0327
2023-05-03T11:14:08.029Z,47.5065
2023-05-03T11:15:09.972Z,47.2740
2023-05-03T11:16:11.908Z,46.8139
2023-05-03T11:17:13.807Z,46.4567
2023-05-03T11:18:15.693Z,46.1548
2023-05-03T11:19:17.603Z,46.1338
2023-05-03T11:20:19.509Z,46.1057
2023-05-03T11:21:21.744Z,45.8770
2023-05-03T11:22:23.349Z,45.7014
2023-05-03T11:23:25.269Z,45.7698
2023-05-03T11:24:27.179Z,45.6876
2023-05-03T11:25:29.084Z,45.5839
2023-05-03T11:26:31.004Z,45.3842
2023-05-03T11:27:32.908Z,43.9080
2023-05-03T11:28:34.865Z,37.6992
2023-05-03T11:29:36.747Z,34.4168
2023-05-03T11:30:38.645Z,35.1365
2023-05-03T11:31:40.634Z,41.8183
2023-05-03T11:32:42.550Z,48.5726
2023-05-03T11:33:46.515Z,54.3462
2023-05-03T11:34:46.360Z,59.4185
2023-05-03T11:35:48.250Z,59.0332
2023-05-03T11:36:50.164Z,54.0025
2023-05-03T11:37:52.069Z,57.9615
2023-05-03T11:38:54.003Z,62.5760
2023-05-03T11:39:55.905Z,66.5525
2023-05-03T11:40:57.815Z,69.7745
2023-05-03T11:41:59.731Z,64.7672
2023-05-03T11:43:01.624Z,52.4002
2023-05-03T11:44:14.933Z,52.4630
2023-05-03T11:45:05.651Z,58.0058
2023-05-03T11:46:07.481Z,62.6735
2023-05-03T11:47:09.485Z,66.7912
2023-05-03T11:48:11.238Z,68.9407
2023-05-03T11:49:13.197Z,58.8932
2023-05-03T11:50:15.089Z,54.7092
2023-05-03T11:51:16.985Z,59.2813
2023-05-03T11:52:18.886Z,59.1022
2023-05-03T11:53:20.808Z,49.2298
2023-05-03T11:54:26.990Z,47.9139
2023-05-03T11:55:24.644Z,47.2817
2023-05-03T11:56:26.557Z,46.9082
2023-05-03T11:57:28.485Z,46.5721
2023-05-03T11:58:30.384Z,46.3370
2023-05-03T11:59:32.291Z,45.9322
2023-05-03T12:00:34.205Z,45.7828
2023-05-03T12:01:36.114Z,45.7480
2023-05-03T12:02:38.211Z,45.7011
2023-05-03T12:03:40.091Z,45.4990
2023-05-03T12:04:42.770Z,45.3971
2023-05-03T12:05:44.398Z,45.5400
2023-05-03T12:06:46.472Z,45.4593
2023-05-03T12:07:47.932Z,45.3425
2023-05-03T12:08:50.311Z,45.2272
2023-05-03T12:10:07.072Z,45.4296
2023-05-03T12:10:54.867Z,45.3516
2023-05-03T12:11:55.948Z,45.2978
2023-05-03T12:12:57.537Z,45.3087
2023-05-03T12:13:59.215Z,45.2003
2023-05-03T12:15:02.785Z,45.0751
2023-05-03T12:16:11.765Z,45.0871
2023-05-03T12:17:04.915Z,45.0261
2023-05-03T12:18:09.120Z,44.9016
2023-05-03T12:19:09.319Z,45.0450
2023-05-03T12:20:41.893Z,44.9410
2023-05-03T12:22:24.696Z,44.9673
2023-05-03T12:23:16.598Z,44.8835
2023-05-03T12:24:20.270Z,44.8520
2023-05-03T12:25:20.840Z,44.6967
2023-05-03T12:26:22.182Z,44.8096
2023-05-03T12:27:24.173Z,44.8542
2023-05-03T12:28:26.065Z,44.7978
2023-05-03T12:29:29.477Z,44.9872
2023-05-03T12:30:29.776Z,44.9742
2023-05-03T12:31:34.371Z,44.9416